Time;durP1;ratioP1;P1;durP2;ratioP2;P2;SDS_P1;SDS_P2;PMS_P1;PMS_P2;Temp;Humidity;BMP_temperature;BMP_pressure;BME280_temperature;BME280_humidity;BME280_pressure;Samples;Min_cycle;Max_cycle;Signal;HPM_P1;HPM_P2
2021/12/24 00:01:39;;;;;;;38.75;26.20;;;7.90;99.90;;;;;;5038201;28;20349;-86
2021/12/24 00:04:09;;;;;;;36.93;23.70;;;;;;;;;;5048632;28;20193;-86
2021/12/24 00:06:38;;;;;;;49.70;29.77;;;7.90;99.90;;;;;;5039930;28;20434;-86
2021/12/24 00:09:06;;;;;;;38.17;23.50;;;7.90;99.90;;;;;;5040926;28;20290;-88
2021/12/24 00:11:33;;;;;;;42.88;27.15;;;8.00;99.90;;;;;;5056941;28;20171;-88
2021/12/24 00:14:01;;;;;;;38.47;23.40;;;7.80;99.90;;;;;;5036287;28;20211;-86
2021/12/24 00:16:38;;;;;;;44.65;26.60;;;8.00;99.90;;;;;;5056894;28;20175;-87
2021/12/24 00:35:14;;;;;;;37.42;25.27;;;8.10;99.90;;;;;;5072166;28;20224;-86
2021/12/24 00:37:44;;;;;;;28.73;16.83;;;8.10;99.90;;;;;;5032950;28;20648;-87
2021/12/24 00:40:21;;;;;;;29.88;16.88;;;8.10;99.90;;;;;;5054222;28;20222;-87
2021/12/24 00:42:55;;;;;;;30.58;18.17;;;8.10;99.90;;;;;;5034982;28;20198;-86
2021/12/24 00:45:25;;;;;;;30.10;17.80;;;8.10;99.90;;;;;;5030686;28;20271;-87
2021/12/24 00:47:54;;;;;;;30.15;20.73;;;8.10;99.90;;;;;;5034371;28;20211;-84
2021/12/24 00:50:25;;;;;;;29.27;19.27;;;8.20;99.90;;;;;;5032731;28;20186;-87
2021/12/24 00:55:43;;;;;;;28.27;20.33;;;;;;;;;;5007945;28;20278;-87
2021/12/24 00:58:09;;;;;;;16.13;11.93;;;;;;;;;;5013932;28;20227;-89
2021/12/24 01:00:39;;;;;;;31.47;21.37;;;8.30;99.90;;;;;;5034996;28;20687;-87
2021/12/24 01:03:13;;;;;;;16.05;12.13;;;8.20;99.90;;;;;;5023079;28;20462;-88
2021/12/24 01:05:43;;;;;;;22.60;17.45;;;8.20;99.90;;;;;;5019133;28;20175;-89
2021/12/24 01:08:14;;;;;;;26.42;19.80;;;8.30;99.90;;;;;;5053049;28;20203;-87
2021/12/24 01:10:49;;;;;;;28.45;20.60;;;8.30;99.90;;;;;;5044914;28;20221;-89
2021/12/24 01:13:15;;;;;;;26.38;18.70;;;8.20;99.90;;;;;;5050753;28;20190;-88
2021/12/24 01:16:03;;;;;;;32.17;20.25;;;8.10;99.90;;;;;;5044008;28;20207;-87
2021/12/24 01:22:46;;;;;;;30.40;19.63;;;8.20;99.90;;;;;;5050719;28;20742;-88
2021/12/24 01:25:26;;;;;;;27.80;16.58;;;8.10;99.90;;;;;;4985708;28;20691;-87
2021/12/24 01:28:34;;;;;;;31.52;20.45;;;8.20;99.90;;;;;;5053796;28;20284;-88
2021/12/24 01:43:25;;;;;;;33.78;23.60;;;8.30;99.90;;;;;;5041037;28;20702;-88
2021/12/24 01:46:04;;;;;;;26.10;16.80;;;7.90;99.90;;;;;;5034760;28;20252;-88
2021/12/24 01:48:42;;;;;;;32.50;19.77;;;8.30;99.90;;;;;;5048735;28;20206;-87
2021/12/24 01:51:20;;;;;;;15.10;10.55;;;8.30;99.90;;;;;;5040845;28;20175;-87
2021/12/24 01:53:56;;;;;;;20.27;15.10;;;8.20;99.90;;;;;;5029508;28;20193;-87
2021/12/24 01:56:22;;;;;;;21.03;15.37;;;;;;;;;;5028539;28;20225;-86
2021/12/24 01:58:48;;;;;;;28.80;20.50;;;8.40;99.90;;;;;;5053749;28;20452;-88
2021/12/24 02:01:14;;;;;;;27.17;20.50;;;;;;;;;;5032685;28;20199;-87
2021/12/24 02:03:42;;;;;;;30.15;18.40;;;8.30;99.90;;;;;;5044317;28;20430;-87
2021/12/24 02:06:11;;;;;;;28.85;19.90;;;8.40;99.90;;;;;;5051887;28;20233;-87
2021/12/24 02:08:41;;;;;;;29.70;18.55;;;8.40;99.90;;;;;;5033346;28;20210;-87
2021/12/24 02:11:07;;;;;;;27.88;18.73;;;8.40;99.90;;;;;;5038993;28;20661;-87
2021/12/24 02:13:33;;;;;;;29.50;18.23;;;;;;;;;;5027849;28;20214;-87
2021/12/24 02:16:15;;;;;;;33.90;24.50;;;;;;;;;;5059055;28;20413;-86
2021/12/24 02:29:35;;;;;;;41.97;26.98;;;8.20;99.90;;;;;;5047349;28;20727;-87
2021/12/24 02:32:01;;;;;;;30.30;20.37;;;8.40;99.90;;;;;;5028585;28;20199;-86
2021/12/24 02:34:27;;;;;;;40.03;26.27;;;8.40;99.90;;;;;;5034123;28;20191;-88
2021/12/24 02:36:53;;;;;;;39.70;23.77;;;;;;;;;;5033759;28;20449;-89
2021/12/24 02:39:19;;;;;;;36.17;23.17;;;8.20;99.90;;;;;;5059286;28;20545;-88
2021/12/24 02:41:46;;;;;;;29.37;17.77;;;8.50;99.90;;;;;;5033019;28;20207;-88
2021/12/24 02:44:12;;;;;;;39.63;23.45;;;8.50;99.90;;;;;;5028282;28;20489;-87
2021/12/24 02:53:56;;;;;;;35.83;22.95;;;8.50;99.90;;;;;;5048370;28;20519;-88
2021/12/24 02:54:54;;;;;;;22.80;15.07;;;8.40;99.90;;;;;;5049702;28;20226;-87
2021/12/24 02:57:26;;;;;;;43.03;24.83;;;;;;;;;;5039559;28;20176;-87
2021/12/24 03:00:06;;;;;;;37.55;22.10;;;8.60;99.90;;;;;;5037678;28;20426;-88
2021/12/24 03:02:34;;;;;;;27.80;14.57;;;8.70;99.90;;;;;;5031952;28;20274;-88
2021/12/24 03:05:01;;;;;;;29.75;21.30;;;8.50;99.90;;;;;;5036405;28;20194;-86
2021/12/24 03:07:27;;;;;;;45.58;24.00;;;8.40;99.90;;;;;;5057982;28;20250;-86
2021/12/24 03:09:58;;;;;;;38.42;19.30;;;8.50;99.90;;;;;;5032345;28;20191;-85
2021/12/24 03:12:29;;;;;;;36.95;24.60;;;8.50;99.90;;;;;;5025274;28;20292;-86
2021/12/24 03:15:08;;;;;;;28.75;18.85;;;8.50;99.90;;;;;;5044816;28;20199;-87
2021/12/24 03:17:34;;;;;;;31.02;19.73;;;;;;;;;;5040095;28;20213;-87
2021/12/24 03:20:07;;;;;;;38.42;27.00;;;;;;;;;;5045872;28;20232;-88
2021/12/24 03:25:25;;;;;;;44.77;27.70;;;8.60;99.90;;;;;;5039101;28;20199;-86
2021/12/24 03:27:53;;;;;;;47.22;27.52;;;8.70;99.90;;;;;;5036929;28;20494;-88
2021/12/24 03:30:28;;;;;;;41.95;25.02;;;8.50;99.90;;;;;;5021783;28;20263;-87
2021/12/24 03:32:54;;;;;;;39.65;24.50;;;8.60;99.90;;;;;;5024414;28;20198;-88
2021/12/24 03:35:23;;;;;;;35.45;24.00;;;8.80;99.90;;;;;;5051888;28;20643;-88
2021/12/24 03:37:52;;;;;;;48.47;28.75;;;8.60;99.90;;;;;;5037081;28;20185;-88
2021/12/24 03:40:18;;;;;;;44.42;29.08;;;8.50;99.90;;;;;;5018034;28;20211;-88
2021/12/24 03:42:51;;;;;;;43.30;28.33;;;8.50;99.90;;;;;;5034140;28;20187;-88
2021/12/24 03:45:41;;;;;;;42.78;25.48;;;8.70;99.90;;;;;;5034935;28;20187;-88
2021/12/24 03:48:21;;;;;;;36.67;21.80;;;8.60;99.90;;;;;;5027358;28;20223;-88
2021/12/24 03:50:58;;;;;;;41.53;24.23;;;8.60;99.90;;;;;;5050958;28;20185;-88
2021/12/24 03:56:15;;;;;;;40.03;24.80;;;8.60;99.90;;;;;;5054263;28;20371;-87
2021/12/24 03:58:42;;;;;;;45.00;29.90;;;8.60;99.90;;;;;;5037918;28;20456;-87
2021/12/24 04:01:12;;;;;;;38.88;24.88;;;8.60;99.90;;;;;;5042758;28;20198;-87
2021/12/24 04:03:42;;;;;;;51.63;30.45;;;8.60;99.90;;;;;;5037473;28;20195;-88
2021/12/24 04:06:08;;;;;;;45.30;27.67;;;8.70;99.90;;;;;;5039530;28;20233;-87
2021/12/24 04:08:54;;;;;;;41.60;25.27;;;8.70;99.90;;;;;;5040442;28;20267;-87
2021/12/24 04:11:22;;;;;;;38.95;25.38;;;8.60;99.90;;;;;;5054758;28;20488;-87
2021/12/24 04:13:48;;;;;;;35.47;24.90;;;8.50;99.90;;;;;;5033656;28;20696;-86
2021/12/24 04:16:16;;;;;;;41.93;26.23;;;8.60;99.90;;;;;;5041690;28;20199;-86
2021/12/24 04:26:48;;;;;;;47.53;30.45;;;8.70;99.90;;;;;;5048783;28;20209;-87
2021/12/24 04:29:14;;;;;;;44.63;26.97;;;8.70;99.90;;;;;;5057517;22;20330;-88
2021/12/24 04:32:05;;;;;;;43.30;28.60;;;8.60;99.90;;;;;;5044955;28;20191;-89
2021/12/24 04:34:34;;;;;;;46.80;26.83;;;8.50;99.90;;;;;;5042323;28;20195;-89
2021/12/24 04:38:06;;;;;;;42.88;29.83;;;8.60;99.90;;;;;;5056141;28;20171;-88
2021/12/24 04:51:24;;;;;;;41.25;28.52;;;8.80;99.90;;;;;;4990731;28;20176;-90
2021/12/24 05:02:55;;;;;;;36.40;23.95;;;8.70;99.90;;;;;;5046689;28;20697;-90
2021/12/24 05:05:40;;;;;;;46.42;25.90;;;8.60;99.90;;;;;;5060100;28;20171;-90
2021/12/24 05:10:43;;;;;;;49.10;27.42;;;8.70;99.90;;;;;;5025017;28;20792;-82
2021/12/24 05:13:12;;;;;;;49.50;30.57;;;9.00;99.90;;;;;;5028559;28;20183;-82
2021/12/24 05:15:40;;;;;;;56.25;30.25;;;8.40;99.90;;;;;;5026960;28;20198;-82
2021/12/24 05:18:29;;;;;;;53.78;31.02;;;8.70;99.90;;;;;;5021871;28;20215;-83
2021/12/24 05:23:40;;;;;;;38.75;23.75;;;10.00;99.90;;;;;;5035595;28;20845;-84
2021/12/24 05:26:06;;;;;;;47.70;25.20;;;8.70;99.90;;;;;;5032735;28;20202;-83
2021/12/24 05:28:32;;;;;;;41.80;23.35;;;8.90;99.90;;;;;;5034012;28;20710;-81
2021/12/24 05:30:59;;;;;;;48.23;30.33;;;8.90;99.90;;;;;;5028870;28;20204;-84
2021/12/24 05:33:24;;;;;;;43.70;23.63;;;8.60;99.90;;;;;;5039750;28;20278;-84
2021/12/24 05:35:50;;;;;;;40.70;25.77;;;8.70;99.90;;;;;;5015344;28;20275;-84
2021/12/24 05:38:16;;;;;;;45.77;28.63;;;9.20;99.90;;;;;;5034035;28;20238;-82
2021/12/24 05:40:43;;;;;;;21.80;17.30;;;8.80;99.90;;;;;;5031852;28;20617;-82
2021/12/24 05:43:10;;;;;;;47.40;28.02;;;9.00;99.90;;;;;;5014632;28;20503;-83
2021/12/24 05:45:36;;;;;;;31.50;21.92;;;9.10;99.90;;;;;;5030807;28;20199;-83
2021/12/24 05:48:02;;;;;;;48.03;29.10;;;8.70;99.90;;;;;;5031451;28;20238;-83
2021/12/24 05:50:27;;;;;;;46.47;28.57;;;8.70;99.90;;;;;;5016149;28;20618;-80
2021/12/24 05:52:53;;;;;;;44.40;25.70;;;8.80;99.90;;;;;;5042146;28;20667;-82
2021/12/24 05:55:19;;;;;;;51.10;31.00;;;9.60;99.90;;;;;;5043332;28;20660;-82
2021/12/24 05:57:45;;;;;;;52.87;32.37;;;8.60;99.90;;;;;;5044884;28;20249;-82
2021/12/24 06:00:12;;;;;;;52.93;31.30;;;9.30;99.90;;;;;;5024774;28;20187;-82
2021/12/24 06:02:37;;;;;;;44.60;25.50;;;8.80;99.90;;;;;;5042432;28;20440;-83
2021/12/24 06:05:03;;;;;;;41.97;23.07;;;8.80;99.90;;;;;;5035510;28;20195;-82
2021/12/24 06:07:29;;;;;;;47.83;26.95;;;8.80;99.90;;;;;;5015085;28;20675;-83
2021/12/24 06:09:55;;;;;;;45.50;25.37;;;8.90;99.90;;;;;;5020184;28;20228;-79
2021/12/24 06:12:20;;;;;;;64.10;30.63;;;8.80;99.90;;;;;;4996619;28;20653;-82
2021/12/24 06:14:52;;;;;;;44.87;28.93;;;9.60;99.90;;;;;;5001955;28;20784;-82
2021/12/24 06:17:18;;;;;;;40.42;25.30;;;8.70;99.90;;;;;;5011471;28;20189;-79
2021/12/24 06:19:44;;;;;;;45.30;27.90;;;10.10;99.90;;;;;;4999768;28;20216;-82
2021/12/24 06:22:10;;;;;;;49.30;25.87;;;8.80;99.90;;;;;;5004384;28;20791;-84
2021/12/24 06:24:36;;;;;;;46.10;27.63;;;9.30;99.90;;;;;;4986447;28;20287;-82
2021/12/24 06:27:02;;;;;;;51.87;28.17;;;8.80;99.90;;;;;;5006266;28;20432;-84
2021/12/24 06:29:27;;;;;;;47.93;26.90;;;8.90;99.90;;;;;;5004367;28;20211;-85
2021/12/24 06:31:56;;;;;;;51.87;27.00;;;10.30;99.90;;;;;;5015808;28;20437;-83
2021/12/24 06:34:22;;;;;;;39.03;20.98;;;8.70;99.90;;;;;;5010529;28;20208;-82
2021/12/24 06:36:51;;;;;;;45.70;25.53;;;9.00;99.90;;;;;;4998769;28;20234;-84
2021/12/24 06:39:17;;;;;;;47.10;25.67;;;8.70;99.90;;;;;;5009370;28;20471;-81
2021/12/24 06:41:43;;;;;;;41.97;27.25;;;8.90;99.90;;;;;;4974546;28;20185;-82
2021/12/24 06:44:12;;;;;;;43.17;26.33;;;8.80;99.90;;;;;;5002500;28;20189;-82
2021/12/24 06:46:40;;;;;;;45.88;27.00;;;8.80;99.90;;;;;;5015921;28;20200;-83
2021/12/24 06:49:08;;;;;;;38.20;25.50;;;8.60;99.90;;;;;;5010438;28;20188;-83
2021/12/24 06:51:34;;;;;;;44.03;25.08;;;8.90;99.90;;;;;;5005255;28;20184;-82
2021/12/24 06:53:59;;;;;;;60.20;23.13;;;8.80;99.90;;;;;;4989690;28;20680;-82
2021/12/24 06:56:26;;;;;;;53.00;27.10;;;9.40;99.90;;;;;;4990393;28;20782;-82
2021/12/24 06:58:52;;;;;;;42.00;24.85;;;9.20;99.90;;;;;;5007512;28;20234;-83
2021/12/24 07:01:22;;;;;;;40.43;23.73;;;9.50;99.90;;;;;;4990147;28;20188;-82
2021/12/24 07:03:48;;;;;;;46.30;28.15;;;9.00;99.90;;;;;;4988069;28;20432;-83
2021/12/24 07:06:14;;;;;;;46.80;25.07;;;8.60;99.90;;;;;;5007800;28;20708;-82
2021/12/24 07:08:40;;;;;;;42.10;27.27;;;8.90;99.90;;;;;;4991329;28;20211;-83
2021/12/24 07:11:08;;;;;;;40.63;23.33;;;9.40;99.90;;;;;;5014156;28;20434;-81
2021/12/24 07:13:34;;;;;;;40.42;28.33;;;8.80;99.90;;;;;;5043467;28;20218;-81
2021/12/24 07:15:59;;;;;;;49.23;27.20;;;8.50;99.90;;;;;;5013361;28;20207;-82
2021/12/24 07:18:25;;;;;;;38.70;26.03;;;8.80;99.90;;;;;;5025274;28;20848;-82
2021/12/24 07:20:51;;;;;;;44.33;25.42;;;9.10;99.90;;;;;;5022406;28;20223;-82
2021/12/24 07:23:16;;;;;;;46.53;26.60;;;9.10;99.90;;;;;;5032132;28;20611;-83
2021/12/24 07:25:42;;;;;;;28.97;17.57;;;8.90;99.90;;;;;;5044052;28;20214;-82
2021/12/24 07:28:09;;;;;;;39.03;23.30;;;9.10;99.90;;;;;;5033394;28;20198;-83
2021/12/24 07:30:35;;;;;;;34.30;23.20;;;9.00;99.90;;;;;;5042338;28;20203;-78
2021/12/24 07:33:08;;;;;;;46.97;26.10;;;10.40;99.90;;;;;;5035618;28;20586;-82
2021/12/24 07:35:34;;;;;;;40.15;25.17;;;9.10;99.90;;;;;;5020830;28;20219;-83
2021/12/24 07:38:00;;;;;;;32.70;22.20;;;9.00;99.90;;;;;;5027935;28;20231;-83
2021/12/24 07:40:26;;;;;;;39.30;22.90;;;8.80;99.90;;;;;;5038038;28;20567;-82
2021/12/24 07:42:53;;;;;;;42.00;21.60;;;8.90;99.90;;;;;;4692571;28;10000280;-82
2021/12/24 07:45:19;;;;;;;39.70;24.67;;;9.20;99.90;;;;;;5031809;28;20188;-84
2021/12/24 07:47:55;;;;;;;46.97;26.00;;;8.90;99.90;;;;;;5031703;28;20269;-82
2021/12/24 07:52:56;;;;;;;37.92;24.27;;;8.90;99.90;;;;;;5043839;28;20198;-82
2021/12/24 07:55:23;;;;;;;35.88;22.65;;;8.80;99.90;;;;;;5047506;28;20191;-78
2021/12/24 07:57:51;;;;;;;41.13;24.58;;;8.90;99.90;;;;;;5041450;28;20219;-82
2021/12/24 08:00:19;;;;;;;36.08;21.38;;;8.90;99.90;;;;;;5047779;28;20218;-83
2021/12/24 08:02:44;;;;;;;31.63;17.42;;;8.90;99.90;;;;;;5043913;28;20223;-83
2021/12/24 08:05:22;;;;;;;31.83;21.50;;;8.90;99.90;;;;;;5040781;28;20532;-82
2021/12/24 08:07:48;;;;;;;36.08;22.23;;;8.80;99.90;;;;;;5047343;28;20195;-83
2021/12/24 08:10:14;;;;;;;37.07;16.97;;;10.20;99.90;;;;;;5035711;28;20241;-85
2021/12/24 08:12:39;;;;;;;30.87;19.23;;;8.80;99.90;;;;;;5039625;28;20487;-82
2021/12/24 08:15:06;;;;;;;35.27;20.00;;;8.90;99.90;;;;;;5043662;28;20187;-84
2021/12/24 08:17:33;;;;;;;30.48;12.35;;;9.00;99.90;;;;;;5037608;28;20179;-83
2021/12/24 08:19:58;;;;;;;33.05;20.02;;;9.00;99.90;;;;;;5039205;28;20179;-82
2021/12/24 08:22:24;;;;;;;37.30;20.63;;;9.00;99.90;;;;;;5034475;28;20681;-83
2021/12/24 08:24:50;;;;;;;39.57;16.93;;;9.50;99.90;;;;;;5035507;28;20221;-83
2021/12/24 08:27:16;;;;;;;33.30;20.27;;;10.50;99.90;;;;;;5016929;28;20203;-83
2021/12/24 08:29:42;;;;;;;33.43;19.47;;;9.00;99.90;;;;;;5037657;28;20262;-81
2021/12/24 08:32:08;;;;;;;29.00;18.87;;;8.90;99.90;;;;;;5034327;28;21219;-83
2021/12/24 08:34:34;;;;;;;36.63;19.60;;;8.90;99.90;;;;;;5031167;28;20958;-83
2021/12/24 08:36:59;;;;;;;41.40;20.90;;;9.00;99.90;;;;;;5020685;28;20428;-84
2021/12/24 08:39:25;;;;;;;33.90;20.33;;;10.10;99.90;;;;;;5016078;28;20219;-81
2021/12/24 08:41:54;;;;;;;34.33;18.27;;;9.00;99.90;;;;;;5019656;28;20410;-81
2021/12/24 08:44:23;;;;;;;31.58;19.38;;;8.90;99.90;;;;;;5034002;28;20697;-84
2021/12/24 08:46:49;;;;;;;36.72;19.75;;;9.00;99.90;;;;;;5021195;28;20175;-79
2021/12/24 08:49:15;;;;;;;35.43;20.70;;;9.30;99.90;;;;;;5033056;28;20430;-84
2021/12/24 08:51:44;;;;;;;40.37;22.43;;;;;;;;;;5036297;28;20426;-84
2021/12/24 08:54:10;;;;;;;43.67;22.13;;;9.00;99.90;;;;;;5019728;28;20442;-80
2021/12/24 08:56:36;;;;;;;38.43;23.70;;;;;;;;;;5035598;28;20410;-83
2021/12/24 08:59:02;;;;;;;43.77;25.10;;;8.50;99.90;;;;;;5018043;28;20310;-84
2021/12/24 09:01:27;;;;;;;37.07;23.90;;;8.70;99.90;;;;;;5021661;28;20527;-83
2021/12/24 09:03:53;;;;;;;40.30;25.50;;;8.90;99.90;;;;;;5017189;28;20426;-82
2021/12/24 09:06:23;;;;;;;38.13;21.60;;;9.00;99.90;;;;;;5019911;28;20442;-83
2021/12/24 09:08:48;;;;;;;34.30;21.83;;;9.90;99.90;;;;;;5022568;28;20219;-83
2021/12/24 09:11:22;;;;;;;37.97;19.95;;;8.90;99.90;;;;;;5031434;28;20232;-83
2021/12/24 09:13:47;;;;;;;36.33;20.60;;;8.90;99.90;;;;;;5032240;28;21004;-85
2021/12/24 09:16:13;;;;;;;38.10;20.57;;;9.00;99.90;;;;;;5018681;28;20239;-82
2021/12/24 09:18:41;;;;;;;31.90;17.13;;;8.90;99.90;;;;;;5033858;28;20998;-81
2021/12/24 09:21:15;;;;;;;27.73;14.85;;;9.00;99.90;;;;;;5017990;28;20187;-83
2021/12/24 09:23:43;;;;;;;35.17;17.87;;;9.40;99.90;;;;;;5015714;28;20612;-82
2021/12/24 09:26:08;;;;;;;36.72;19.75;;;8.70;99.90;;;;;;5034979;28;20441;-82
2021/12/24 09:28:34;;;;;;;29.17;17.97;;;10.70;99.90;;;;;;5037343;28;20207;-83
2021/12/24 09:31:00;;;;;;;33.97;18.37;;;9.00;99.90;;;;;;4333994;28;10000624;-83
2021/12/24 09:33:26;;;;;;;36.53;19.33;;;9.00;99.90;;;;;;5012318;28;20435;-83
2021/12/24 09:35:51;;;;;;;30.23;15.97;;;9.00;99.90;;;;;;5011470;28;20202;-83
2021/12/24 09:38:17;;;;;;;39.10;20.20;;;8.90;99.90;;;;;;5000332;28;20620;-85
2021/12/24 09:40:52;;;;;;;55.60;20.17;;;8.90;99.90;;;;;;5008767;28;20297;-83
2021/12/24 09:43:18;;;;;;;27.75;17.85;;;8.90;99.90;;;;;;5028297;28;20614;-82
2021/12/24 09:45:48;;;;;;;31.57;19.73;;;8.90;99.90;;;;;;5008878;28;20223;-82
2021/12/24 09:48:14;;;;;;;27.00;18.00;;;9.10;99.90;;;;;;4997934;28;20215;-83
2021/12/24 09:50:42;;;;;;;27.50;17.37;;;9.10;99.90;;;;;;5015894;28;20222;-83
2021/12/24 09:53:08;;;;;;;30.48;16.38;;;;;;;;;;5019112;28;20187;-82
2021/12/24 09:55:34;;;;;;;30.88;15.95;;;9.10;99.90;;;;;;5033677;28;20184;-82
2021/12/24 09:58:00;;;;;;;41.22;18.92;;;9.10;99.90;;;;;;5010999;28;20227;-83
2021/12/24 10:00:27;;;;;;;30.07;19.30;;;9.10;99.90;;;;;;5033519;28;20275;-82
2021/12/24 10:02:57;;;;;;;31.55;18.80;;;8.90;99.90;;;;;;5019614;28;20600;-82
2021/12/24 10:05:25;;;;;;;34.58;18.67;;;10.30;99.90;;;;;;5014204;28;20278;-78
2021/12/24 10:08:13;;;;;;;32.75;19.23;;;8.90;99.90;;;;;;5034842;28;20199;-82
2021/12/24 10:10:43;;;;;;;32.03;18.50;;;9.20;99.90;;;;;;5029060;28;20215;-79
2021/12/24 10:13:32;;;;;;;33.55;19.58;;;9.20;99.90;;;;;;5035929;28;20270;-82
2021/12/24 10:16:05;;;;;;;21.55;13.32;;;9.10;99.90;;;;;;5040742;28;20187;-78
2021/12/24 10:18:35;;;;;;;41.27;16.53;;;9.00;99.90;;;;;;5018024;28;20722;-81
2021/12/24 10:21:02;;;;;;;20.45;14.23;;;9.20;99.90;;;;;;5023150;28;20560;-85
2021/12/24 10:23:54;;;;;;;44.30;19.17;;;9.10;99.90;;;;;;5048152;28;20199;-84
2021/12/24 10:26:32;;;;;;;22.52;13.27;;;9.00;99.90;;;;;;5017831;28;20199;-80
2021/12/24 10:29:08;;;;;;;33.70;18.05;;;9.30;99.90;;;;;;5033426;28;20221;-82
2021/12/24 10:31:43;;;;;;;38.78;19.10;;;9.20;99.90;;;;;;5023378;28;20198;-83
2021/12/24 10:34:13;;;;;;;30.80;15.73;;;9.10;99.90;;;;;;5041040;28;20661;-83
2021/12/24 10:36:59;;;;;;;32.80;18.67;;;9.10;99.90;;;;;;5020636;28;20524;-83
2021/12/24 10:39:33;;;;;;;24.35;15.50;;;9.20;99.90;;;;;;5041793;28;20481;-80
2021/12/24 10:42:02;;;;;;;23.20;15.90;;;9.60;99.90;;;;;;5016309;28;20234;-78
2021/12/24 10:44:32;;;;;;;25.13;16.03;;;9.00;99.90;;;;;;5034879;28;20428;-82
2021/12/24 10:47:08;;;;;;;20.20;14.23;;;9.30;99.90;;;;;;5024121;28;20430;-83
2021/12/24 10:52:31;;;;;;;21.35;16.15;;;9.00;99.90;;;;;;5051963;28;20547;-83
2021/12/24 10:54:58;;;;;;;30.47;17.50;;;9.10;99.90;;;;;;5044648;28;20219;-83
2021/12/24 10:57:27;;;;;;;31.10;16.93;;;10.20;99.90;;;;;;5024897;28;20445;-82
2021/12/24 10:59:56;;;;;;;31.10;17.00;;;9.00;99.90;;;;;;5047590;28;20472;-83
2021/12/24 11:02:33;;;;;;;30.30;16.97;;;9.20;99.90;;;;;;5033839;28;20431;-83
2021/12/24 11:05:00;;;;;;;34.72;16.60;;;10.00;99.90;;;;;;5041930;28;20431;-82
2021/12/24 11:07:41;;;;;;;24.90;15.00;;;9.20;99.90;;;;;;5035377;28;20200;-81
2021/12/24 11:10:14;;;;;;;21.50;12.93;;;9.10;99.90;;;;;;5039644;28;20454;-82
2021/12/24 11:12:43;;;;;;;35.33;14.23;;;9.20;99.90;;;;;;5028846;28;20443;-83
2021/12/24 11:15:33;;;;;;;12.60;8.03;;;9.30;99.90;;;;;;5025267;28;20278;-80
2021/12/24 11:18:08;;;;;;;23.08;12.70;;;9.30;99.90;;;;;;5029268;28;20471;-82
2021/12/24 11:20:37;;;;;;;23.00;11.73;;;9.40;99.90;;;;;;5018990;28;20187;-84
2021/12/24 11:23:14;;;;;;;22.80;13.87;;;7.30;99.90;;;;;;5029219;28;20451;-83
2021/12/24 11:25:55;;;;;;;23.33;12.57;;;9.20;99.90;;;;;;5038610;28;20828;-83
2021/12/24 11:28:23;;;;;;;21.98;13.80;;;9.30;99.90;;;;;;5039041;28;20195;-82
2021/12/24 11:30:55;;;;;;;27.33;14.63;;;9.00;99.90;;;;;;5036884;28;20195;-84
2021/12/24 11:33:34;;;;;;;17.17;13.07;;;9.40;99.90;;;;;;5043673;28;20193;-82
2021/12/24 11:36:02;;;;;;;25.77;14.18;;;9.00;99.90;;;;;;5019724;28;20272;-82
2021/12/24 11:38:32;;;;;;;24.67;12.85;;;9.20;99.90;;;;;;5016604;28;20337;-82
2021/12/24 11:41:00;;;;;;;17.15;9.40;;;9.20;99.90;;;;;;5034821;28;20246;-81
2021/12/24 11:43:35;;;;;;;22.58;13.80;;;8.80;99.90;;;;;;5035742;28;20244;-81
2021/12/24 11:46:03;;;;;;;28.20;13.77;;;8.90;99.90;;;;;;5038398;28;20175;-83
2021/12/24 11:48:32;;;;;;;21.83;16.40;;;8.90;99.90;;;;;;5016210;28;20187;-81
2021/12/24 11:51:00;;;;;;;26.70;15.77;;;9.00;99.90;;;;;;5042779;28;20180;-82
2021/12/24 11:53:28;;;;;;;27.10;15.25;;;10.00;99.90;;;;;;5036126;28;20464;-83
2021/12/24 11:56:12;;;;;;;35.58;17.45;;;8.90;99.90;;;;;;5018481;28;20209;-84
2021/12/24 11:58:50;;;;;;;36.93;16.27;;;9.10;99.90;;;;;;5035884;28;20706;-83
2021/12/24 12:01:18;;;;;;;34.45;18.80;;;9.00;99.90;;;;;;5014719;28;20548;-80
2021/12/24 12:03:51;;;;;;;26.50;15.70;;;8.90;99.90;;;;;;5034090;28;20701;-80
2021/12/24 12:06:24;;;;;;;29.38;16.90;;;9.00;99.90;;;;;;5043172;28;20190;-80
2021/12/24 12:08:57;;;;;;;35.90;15.65;;;8.80;99.90;;;;;;5037263;28;20176;-82
2021/12/24 12:11:27;;;;;;;36.75;18.23;;;9.60;99.90;;;;;;5035064;28;20194;-82
2021/12/24 12:14:02;;;;;;;33.20;18.20;;;8.90;99.90;;;;;;5014527;28;20188;-80
2021/12/24 12:16:38;;;;;;;34.88;17.38;;;8.80;99.90;;;;;;5022364;28;20190;-83
2021/12/24 12:22:54;;;;;;;34.60;15.85;;;8.80;99.90;;;;;;5038572;28;20501;-82
2021/12/24 12:25:12;;;;;;;35.63;14.70;;;9.00;99.90;;;;;;4684927;28;10001340;-81
2021/12/24 12:27:57;;;;;;;24.27;15.50;;;9.00;99.90;;;;;;5023865;28;20217;-80
2021/12/24 12:30:30;;;;;;;27.90;13.93;;;9.00;99.90;;;;;;5031191;28;20450;-83
2021/12/24 12:33:19;;;;;;;32.55;18.38;;;8.70;99.90;;;;;;5024518;28;20430;-83
2021/12/24 12:36:03;;;;;;;29.83;16.52;;;8.70;99.90;;;;;;5026913;28;20861;-83
2021/12/24 12:38:35;;;;;;;38.70;16.27;;;8.80;99.90;;;;;;5005804;28;20288;-82
2021/12/24 12:41:25;;;;;;;31.80;17.80;;;8.90;99.90;;;;;;5028521;28;20438;-81
2021/12/24 12:43:53;;;;;;;27.52;18.83;;;8.90;99.90;;;;;;5030739;28;20184;-82
2021/12/24 12:46:27;;;;;;;32.33;18.40;;;8.90;99.90;;;;;;5018626;28;20195;-83
2021/12/24 12:48:54;;;;;;;33.70;17.97;;;9.00;99.90;;;;;;5030217;28;20187;-79
2021/12/24 12:51:41;;;;;;;45.23;20.17;;;8.90;99.90;;;;;;5035420;28;20473;-81
2021/12/24 12:54:27;;;;;;;26.02;14.30;;;9.00;99.90;;;;;;5033944;28;20433;-82
2021/12/24 12:57:14;;;;;;;27.70;16.73;;;8.60;99.90;;;;;;5027568;28;20191;-82
2021/12/24 13:13:15;;;;;;;35.27;19.10;;;8.40;99.90;;;;;;5038858;28;20261;-85
2021/12/24 13:15:46;;;;;;;39.58;19.30;;;9.60;99.90;;;;;;5024153;28;20515;-81
2021/12/24 13:18:24;;;;;;;32.88;17.17;;;10.20;99.90;;;;;;5027697;28;20324;-82
2021/12/24 13:23:36;;;;;;;31.37;20.53;;;9.00;99.90;;;;;;5017013;28;20283;-82
2021/12/24 13:26:21;;;;;;;30.27;17.92;;;8.80;99.90;;;;;;5011237;28;20438;-76
2021/12/24 13:28:55;;;;;;;33.53;20.80;;;8.40;99.90;;;;;;5038643;28;20179;-83
2021/12/24 13:31:21;;;;;;;33.17;19.02;;;9.00;99.90;;;;;;5029684;28;20441;-82
2021/12/24 13:33:48;;;;;;;28.90;19.30;;;8.90;99.90;;;;;;5013667;28;20194;-82
2021/12/24 13:36:13;;;;;;;36.33;17.45;;;9.10;99.90;;;;;;5033430;28;20230;-80
2021/12/24 13:38:41;;;;;;;32.03;18.90;;;9.20;99.90;;;;;;5023728;28;20617;-82
2021/12/24 13:41:09;;;;;;;40.33;17.58;;;9.00;99.90;;;;;;5018082;28;20511;-83
2021/12/24 13:43:38;;;;;;;33.95;18.45;;;9.00;99.90;;;;;;5036267;28;20191;-80
2021/12/24 13:46:09;;;;;;;30.30;19.50;;;9.30;99.90;;;;;;5009299;28;20552;-81
2021/12/24 13:49:07;;;;;;;34.20;19.25;;;9.10;99.90;;;;;;5012382;28;20912;-82
2021/12/24 13:54:33;;;;;;;29.42;19.00;;;9.10;99.90;;;;;;5031405;28;20198;-81
2021/12/24 13:57:03;;;;;;;27.40;18.80;;;9.50;99.90;;;;;;5027268;28;20196;-82
2021/12/24 13:59:29;;;;;;;24.73;17.23;;;9.20;99.90;;;;;;5042078;28;20501;-82
2021/12/24 14:01:55;;;;;;;36.03;17.40;;;9.20;99.90;;;;;;5045190;28;20229;-81
2021/12/24 14:04:22;;;;;;;28.60;18.05;;;9.40;99.90;;;;;;5018868;28;20329;-81
2021/12/24 14:06:51;;;;;;;23.53;15.47;;;9.10;99.90;;;;;;5017219;28;20199;-80
2021/12/24 14:09:36;;;;;;;30.00;18.30;;;9.10;99.90;;;;;;5049263;28;20426;-81
2021/12/24 14:12:06;;;;;;;27.25;16.48;;;9.20;99.90;;;;;;5017521;28;20196;-82
2021/12/24 14:14:47;;;;;;;29.75;17.60;;;9.10;99.90;;;;;;5019004;28;20268;-80
2021/12/24 14:17:37;;;;;;;35.37;19.27;;;9.10;99.90;;;;;;5047012;28;20655;-80
2021/12/24 14:20:23;;;;;;;27.10;18.30;;;9.10;99.90;;;;;;5037816;28;20437;-82
2021/12/24 14:22:49;;;;;;;22.17;14.90;;;9.10;99.90;;;;;;5035301;28;20481;-83
2021/12/24 14:25:15;;;;;;;29.47;17.53;;;9.20;99.90;;;;;;5036531;28;20199;-83
2021/12/24 14:27:48;;;;;;;22.60;16.30;;;10.30;99.90;;;;;;5037214;28;20422;-82
2021/12/24 14:30:21;;;;;;;21.48;15.80;;;10.20;99.90;;;;;;5031752;28;20426;-84
2021/12/24 14:32:50;;;;;;;27.10;16.50;;;9.20;99.90;;;;;;5016355;28;20230;-82
2021/12/24 14:35:21;;;;;;;18.60;13.73;;;9.00;99.90;;;;;;5029945;28;20180;-81
2021/12/24 14:38:05;;;;;;;26.20;17.45;;;8.90;99.90;;;;;;5012965;28;20290;-83
2021/12/24 14:40:33;;;;;;;23.83;16.57;;;9.20;99.90;;;;;;5007540;28;20280;-83
2021/12/24 14:43:17;;;;;;;18.80;15.70;;;9.10;99.90;;;;;;5033592;28;20430;-83
2021/12/24 14:45:46;;;;;;;17.38;13.95;;;9.10;99.90;;;;;;5010524;28;20200;-83
2021/12/24 14:48:16;;;;;;;30.43;15.53;;;9.20;99.90;;;;;;5004721;28;20223;-81
2021/12/24 14:50:46;;;;;;;25.75;15.23;;;9.10;99.90;;;;;;5031165;28;20422;-82
2021/12/24 14:53:26;;;;;;;22.60;13.90;;;9.80;99.90;;;;;;5028000;28;20207;-77
2021/12/24 14:55:57;;;;;;;22.05;15.15;;;9.80;99.90;;;;;;5032173;28;20450;-82
2021/12/24 14:58:35;;;;;;;20.38;16.52;;;9.00;99.90;;;;;;5006178;28;20228;-82